sensor_id;sensor_type;location;lat;lon;timestamp;P1;durP1;ratioP1;P2;durP2;ratioP2
48263;SDS011;34086;51.076;13.722;2022-12-07T00:00:45;25.00;;;16.08;;
48263;SDS011;34086;51.076;13.722;2022-12-07T00:01:46;26.00;;;16.17;;
48263;SDS011;34086;51.076;13.722;2022-12-07T00:02:47;22.77;;;15.38;;
48263;SDS011;34086;51.076;13.722;2022-12-07T00:03:48;23.67;;;15.57;;
48263;SDS011;34086;51.076;13.722;2022-12-07T00:04:51;27.80;;;15.80;;
48263;SDS011;34086;51.076;13.722;2022-12-07T00:05:51;23.05;;;14.65;;
48263;SDS011;34086;51.076;13.722;2022-12-07T00:06:52;24.05;;;15.30;;
48263;SDS011;34086;51.076;13.722;2022-12-07T00:07:53;23.52;;;15.13;;
48263;SDS011;34086;51.076;13.722;2022-12-07T00:08:53;23.65;;;15.60;;
48263;SDS011;34086;51.076;13.722;2022-12-07T00:09:54;25.63;;;15.93;;
48263;SDS011;34086;51.076;13.722;2022-12-07T00:10:55;24.77;;;16.05;;
48263;SDS011;34086;51.076;13.722;2022-12-07T00:12:11;23.90;;;15.40;;
48263;SDS011;34086;51.076;13.722;2022-12-07T00:13:11;24.20;;;15.20;;
48263;SDS011;34086;51.076;13.722;2022-12-07T00:14:13;24.48;;;15.50;;
48263;SDS011;34086;51.076;13.722;2022-12-07T00:15:15;25.45;;;16.45;;
48263;SDS011;34086;51.076;13.722;2022-12-07T00:16:16;23.70;;;15.13;;
48263;SDS011;34086;51.076;13.722;2022-12-07T00:17:18;23.30;;;15.10;;
48263;SDS011;34086;51.076;13.722;2022-12-07T00:18:18;25.48;;;15.40;;
48263;SDS011;34086;51.076;13.722;2022-12-07T00:19:22;26.38;;;15.80;;
48263;SDS011;34086;51.076;13.722;2022-12-07T00:20:22;23.58;;;15.10;;
48263;SDS011;34086;51.076;13.722;2022-12-07T00:21:27;26.50;;;16.02;;
48263;SDS011;34086;51.076;13.722;2022-12-07T00:22:30;23.95;;;15.32;;
48263;SDS011;34086;51.076;13.722;2022-12-07T00:23:30;24.35;;;15.75;;
48263;SDS011;34086;51.076;13.722;2022-12-07T00:24:35;25.10;;;15.65;;
48263;SDS011;34086;51.076;13.722;2022-12-07T00:25:36;24.70;;;16.05;;
48263;SDS011;34086;51.076;13.722;2022-12-07T00:26:38;25.58;;;15.70;;
48263;SDS011;34086;51.076;13.722;2022-12-07T00:27:40;26.63;;;16.65;;
48263;SDS011;34086;51.076;13.722;2022-12-07T00:28:41;26.10;;;15.95;;
48263;SDS011;34086;51.076;13.722;2022-12-07T00:29:52;25.05;;;15.10;;
48263;SDS011;34086;51.076;13.722;2022-12-07T00:30:57;25.17;;;15.77;;
48263;SDS011;34086;51.076;13.722;2022-12-07T00:32:07;26.77;;;15.70;;
48263;SDS011;34086;51.076;13.722;2022-12-07T00:33:07;24.50;;;15.77;;
48263;SDS011;34086;51.076;13.722;2022-12-07T00:34:11;24.23;;;14.73;;
48263;SDS011;34086;51.076;13.722;2022-12-07T00:35:14;24.52;;;15.35;;
48263;SDS011;34086;51.076;13.722;2022-12-07T00:36:16;25.85;;;15.98;;
48263;SDS011;34086;51.076;13.722;2022-12-07T00:37:18;25.77;;;15.93;;
48263;SDS011;34086;51.076;13.722;2022-12-07T00:38:19;25.25;;;15.32;;
48263;SDS011;34086;51.076;13.722;2022-12-07T00:39:20;24.25;;;15.10;;
48263;SDS011;34086;51.076;13.722;2022-12-07T00:40:20;24.83;;;15.27;;
48263;SDS011;34086;51.076;13.722;2022-12-07T00:41:22;25.15;;;15.52;;
48263;SDS011;34086;51.076;13.722;2022-12-07T00:42:23;27.52;;;15.48;;
48263;SDS011;34086;51.076;13.722;2022-12-07T00:43:24;24.25;;;14.88;;
48263;SDS011;34086;51.076;13.722;2022-12-07T00:44:25;26.15;;;15.45;;
48263;SDS011;34086;51.076;13.722;2022-12-07T00:45:26;24.00;;;15.15;;
48263;SDS011;34086;51.076;13.722;2022-12-07T00:46:27;24.83;;;15.15;;
48263;SDS011;34086;51.076;13.722;2022-12-07T00:47:28;24.23;;;14.93;;
48263;SDS011;34086;51.076;13.722;2022-12-07T00:48:28;24.58;;;15.20;;
48263;SDS011;34086;51.076;13.722;2022-12-07T00:49:29;24.45;;;15.25;;
48263;SDS011;34086;51.076;13.722;2022-12-07T00:50:30;27.48;;;15.40;;
48263;SDS011;34086;51.076;13.722;2022-12-07T00:51:31;25.23;;;16.13;;
48263;SDS011;34086;51.076;13.722;2022-12-07T00:52:31;24.05;;;14.82;;
48263;SDS011;34086;51.076;13.722;2022-12-07T00:53:35;24.40;;;15.75;;
48263;SDS011;34086;51.076;13.722;2022-12-07T00:54:37;25.40;;;15.43;;
48263;SDS011;34086;51.076;13.722;2022-12-07T00:55:37;25.15;;;15.07;;
48263;SDS011;34086;51.076;13.722;2022-12-07T00:56:38;25.40;;;15.25;;
48263;SDS011;34086;51.076;13.722;2022-12-07T00:57:39;24.77;;;15.93;;
48263;SDS011;34086;51.076;13.722;2022-12-07T00:58:40;25.33;;;15.93;;
48263;SDS011;34086;51.076;13.722;2022-12-07T00:59:40;25.58;;;15.50;;
48263;SDS011;34086;51.076;13.722;2022-12-07T01:00:41;24.65;;;15.77;;
48263;SDS011;34086;51.076;13.722;2022-12-07T01:01:43;26.52;;;15.60;;
48263;SDS011;34086;51.076;13.722;2022-12-07T01:02:43;27.67;;;15.80;;
48263;SDS011;34086;51.076;13.722;2022-12-07T01:03:44;26.75;;;15.85;;
48263;SDS011;34086;51.076;13.722;2022-12-07T01:04:45;24.85;;;15.60;;
48263;SDS011;34086;51.076;13.722;2022-12-07T01:05:52;28.00;;;16.38;;
48263;SDS011;34086;51.076;13.722;2022-12-07T01:06:54;27.52;;;16.40;;
48263;SDS011;34086;51.076;13.722;2022-12-07T01:07:54;26.08;;;16.02;;
48263;SDS011;34086;51.076;13.722;2022-12-07T01:08:55;26.40;;;15.43;;
48263;SDS011;34086;51.076;13.722;2022-12-07T01:09:56;25.83;;;16.08;;
48263;SDS011;34086;51.076;13.722;2022-12-07T01:10:58;24.63;;;15.45;;
48263;SDS011;34086;51.076;13.722;2022-12-07T01:12:01;25.90;;;15.52;;
48263;SDS011;34086;51.076;13.722;2022-12-07T01:13:02;24.98;;;16.40;;
48263;SDS011;34086;51.076;13.722;2022-12-07T01:14:03;26.65;;;16.23;;
48263;SDS011;34086;51.076;13.722;2022-12-07T01:15:04;26.48;;;15.68;;
48263;SDS011;34086;51.076;13.722;2022-12-07T01:16:06;27.98;;;16.10;;
48263;SDS011;34086;51.076;13.722;2022-12-07T01:17:07;25.55;;;15.65;;
48263;SDS011;34086;51.076;13.722;2022-12-07T01:18:08;26.75;;;15.18;;
48263;SDS011;34086;51.076;13.722;2022-12-07T01:19:09;25.90;;;15.60;;
48263;SDS011;34086;51.076;13.722;2022-12-07T01:20:10;27.85;;;16.67;;
48263;SDS011;34086;51.076;13.722;2022-12-07T01:21:28;28.38;;;16.38;;
48263;SDS011;34086;51.076;13.722;2022-12-07T01:22:30;30.60;;;16.80;;
48263;SDS011;34086;51.076;13.722;2022-12-07T01:23:31;27.05;;;15.70;;
48263;SDS011;34086;51.076;13.722;2022-12-07T01:24:32;27.08;;;16.40;;
48263;SDS011;34086;51.076;13.722;2022-12-07T01:25:33;24.88;;;15.55;;
48263;SDS011;34086;51.076;13.722;2022-12-07T01:26:34;27.63;;;15.48;;
48263;SDS011;34086;51.076;13.722;2022-12-07T01:27:34;25.27;;;16.17;;
48263;SDS011;34086;51.076;13.722;2022-12-07T01:28:35;28.48;;;16.88;;
48263;SDS011;34086;51.076;13.722;2022-12-07T01:29:37;26.88;;;15.90;;
48263;SDS011;34086;51.076;13.722;2022-12-07T01:30:37;27.48;;;16.02;;
48263;SDS011;34086;51.076;13.722;2022-12-07T01:31:38;27.85;;;16.40;;
48263;SDS011;34086;51.076;13.722;2022-12-07T01:32:39;26.23;;;15.40;;
48263;SDS011;34086;51.076;13.722;2022-12-07T01:33:40;28.35;;;16.77;;
48263;SDS011;34086;51.076;13.722;2022-12-07T01:34:42;25.15;;;15.50;;
48263;SDS011;34086;51.076;13.722;2022-12-07T01:35:42;27.77;;;16.23;;
48263;SDS011;34086;51.076;13.722;2022-12-07T01:36:43;28.13;;;16.48;;
48263;SDS011;34086;51.076;13.722;2022-12-07T01:37:44;29.42;;;16.33;;
48263;SDS011;34086;51.076;13.722;2022-12-07T01:38:45;26.17;;;15.93;;
48263;SDS011;34086;51.076;13.722;2022-12-07T01:39:50;23.77;;;15.27;;
48263;SDS011;34086;51.076;13.722;2022-12-07T01:40:55;27.52;;;16.17;;
48263;SDS011;34086;51.076;13.722;2022-12-07T01:41:56;26.85;;;16.15;;
48263;SDS011;34086;51.076;13.722;2022-12-07T01:42:57;24.77;;;15.45;;
48263;SDS011;34086;51.076;13.722;2022-12-07T01:46:18;26.63;;;16.30;;
48263;SDS011;34086;51.076;13.722;2022-12-07T01:47:19;26.23;;;16.02;;
48263;SDS011;34086;51.076;13.722;2022-12-07T01:48:24;25.83;;;15.90;;
48263;SDS011;34086;51.076;13.722;2022-12-07T01:49:42;28.83;;;16.52;;
48263;SDS011;34086;51.076;13.722;2022-12-07T01:50:46;27.17;;;15.98;;
48263;SDS011;34086;51.076;13.722;2022-12-07T01:51:51;25.50;;;15.55;;
48263;SDS011;34086;51.076;13.722;2022-12-07T01:52:55;27.77;;;16.02;;
48263;SDS011;34086;51.076;13.722;2022-12-07T01:53:58;26.15;;;15.68;;
48263;SDS011;34086;51.076;13.722;2022-12-07T01:55:00;25.73;;;15.93;;
48263;SDS011;34086;51.076;13.722;2022-12-07T01:56:04;27.08;;;16.17;;
48263;SDS011;34086;51.076;13.722;2022-12-07T01:57:07;27.55;;;16.23;;
48263;SDS011;34086;51.076;13.722;2022-12-07T01:58:09;26.75;;;16.42;;
48263;SDS011;34086;51.076;13.722;2022-12-07T01:59:11;27.50;;;16.17;;
48263;SDS011;34086;51.076;13.722;2022-12-07T02:00:12;24.35;;;15.00;;
48263;SDS011;34086;51.076;13.722;2022-12-07T02:01:13;23.90;;;14.75;;
48263;SDS011;34086;51.076;13.722;2022-12-07T02:02:18;24.60;;;14.75;;
48263;SDS011;34086;51.076;13.722;2022-12-07T02:03:30;24.77;;;15.02;;
48263;SDS011;34086;51.076;13.722;2022-12-07T02:04:35;23.90;;;14.38;;
48263;SDS011;34086;51.076;13.722;2022-12-07T02:05:37;22.75;;;14.27;;
48263;SDS011;34086;51.076;13.722;2022-12-07T02:06:40;24.35;;;14.57;;
48263;SDS011;34086;51.076;13.722;2022-12-07T02:07:45;22.40;;;13.93;;
48263;SDS011;34086;51.076;13.722;2022-12-07T02:08:47;24.77;;;14.48;;
48263;SDS011;34086;51.076;13.722;2022-12-07T02:09:49;22.75;;;14.38;;
48263;SDS011;34086;51.076;13.722;2022-12-07T02:10:50;23.60;;;14.27;;
48263;SDS011;34086;51.076;13.722;2022-12-07T02:11:50;20.05;;;13.30;;
48263;SDS011;34086;51.076;13.722;2022-12-07T02:12:56;24.00;;;14.85;;
48263;SDS011;34086;51.076;13.722;2022-12-07T02:14:02;22.50;;;14.07;;
48263;SDS011;34086;51.076;13.722;2022-12-07T02:15:03;22.95;;;14.77;;
48263;SDS011;34086;51.076;13.722;2022-12-07T02:17:13;23.02;;;14.43;;
48263;SDS011;34086;51.076;13.722;2022-12-07T02:23:17;22.33;;;14.57;;
48263;SDS011;34086;51.076;13.722;2022-12-07T02:24:53;20.90;;;13.52;;
48263;SDS011;34086;51.076;13.722;2022-12-07T02:26:02;22.05;;;13.65;;
48263;SDS011;34086;51.076;13.722;2022-12-07T02:27:28;22.55;;;13.70;;
48263;SDS011;34086;51.076;13.722;2022-12-07T02:28:34;22.00;;;13.65;;
48263;SDS011;34086;51.076;13.722;2022-12-07T02:29:49;23.25;;;14.10;;
48263;SDS011;34086;51.076;13.722;2022-12-07T02:31:19;21.15;;;13.45;;
48263;SDS011;34086;51.076;13.722;2022-12-07T02:32:36;21.88;;;13.50;;
48263;SDS011;34086;51.076;13.722;2022-12-07T02:34:29;21.08;;;12.63;;
48263;SDS011;34086;51.076;13.722;2022-12-07T02:35:40;19.58;;;12.50;;
48263;SDS011;34086;51.076;13.722;2022-12-07T02:37:03;21.13;;;12.93;;
48263;SDS011;34086;51.076;13.722;2022-12-07T02:38:30;20.27;;;12.88;;
48263;SDS011;34086;51.076;13.722;2022-12-07T02:39:37;19.33;;;12.35;;
48263;SDS011;34086;51.076;13.722;2022-12-07T02:40:52;20.95;;;12.75;;
48263;SDS011;34086;51.076;13.722;2022-12-07T02:42:02;19.55;;;11.98;;
48263;SDS011;34086;51.076;13.722;2022-12-07T02:43:14;20.00;;;12.18;;
48263;SDS011;34086;51.076;13.722;2022-12-07T02:44:24;19.95;;;12.48;;
48263;SDS011;34086;51.076;13.722;2022-12-07T02:45:27;19.17;;;11.80;;
48263;SDS011;34086;51.076;13.722;2022-12-07T02:46:36;19.65;;;12.07;;
48263;SDS011;34086;51.076;13.722;2022-12-07T02:47:42;19.95;;;12.20;;
48263;SDS011;34086;51.076;13.722;2022-12-07T02:48:44;19.60;;;12.30;;
48263;SDS011;34086;51.076;13.722;2022-12-07T02:49:47;18.83;;;12.13;;
48263;SDS011;34086;51.076;13.722;2022-12-07T02:50:53;18.05;;;11.77;;
48263;SDS011;34086;51.076;13.722;2022-12-07T02:51:54;19.80;;;12.25;;
48263;SDS011;34086;51.076;13.722;2022-12-07T02:52:55;19.23;;;12.32;;
48263;SDS011;34086;51.076;13.722;2022-12-07T02:53:56;19.20;;;12.25;;
48263;SDS011;34086;51.076;13.722;2022-12-07T02:54:56;20.88;;;12.45;;
48263;SDS011;34086;51.076;13.722;2022-12-07T02:55:58;19.83;;;12.68;;
48263;SDS011;34086;51.076;13.722;2022-12-07T02:58:35;21.95;;;13.02;;
48263;SDS011;34086;51.076;13.722;2022-12-07T03:03:26;21.88;;;13.55;;
48263;SDS011;34086;51.076;13.722;2022-12-07T03:07:47;19.58;;;12.50;;
48263;SDS011;34086;51.076;13.722;2022-12-07T03:08:36;20.42;;;12.63;;
48263;SDS011;34086;51.076;13.722;2022-12-07T03:09:54;21.23;;;12.88;;
48263;SDS011;34086;51.076;13.722;2022-12-07T03:11:05;21.80;;;13.63;;
48263;SDS011;34086;51.076;13.722;2022-12-07T03:12:09;20.70;;;13.23;;
48263;SDS011;34086;51.076;13.722;2022-12-07T03:14:40;22.73;;;13.73;;
48263;SDS011;34086;51.076;13.722;2022-12-07T03:15:58;19.58;;;12.77;;
48263;SDS011;34086;51.076;13.722;2022-12-07T03:17:08;19.95;;;12.25;;
48263;SDS011;34086;51.076;13.722;2022-12-07T03:18:15;20.02;;;12.57;;
48263;SDS011;34086;51.076;13.722;2022-12-07T03:19:20;19.48;;;12.50;;
48263;SDS011;34086;51.076;13.722;2022-12-07T03:20:24;22.38;;;12.90;;
48263;SDS011;34086;51.076;13.722;2022-12-07T03:21:31;17.40;;;11.70;;
48263;SDS011;34086;51.076;13.722;2022-12-07T03:22:42;21.20;;;12.95;;
48263;SDS011;34086;51.076;13.722;2022-12-07T03:23:47;19.52;;;12.63;;
48263;SDS011;34086;51.076;13.722;2022-12-07T03:24:52;20.60;;;13.20;;
48263;SDS011;34086;51.076;13.722;2022-12-07T03:25:57;21.42;;;13.48;;
48263;SDS011;34086;51.076;13.722;2022-12-07T03:27:05;23.67;;;14.55;;
48263;SDS011;34086;51.076;13.722;2022-12-07T03:28:14;22.92;;;13.80;;
48263;SDS011;34086;51.076;13.722;2022-12-07T03:29:19;21.65;;;13.75;;
48263;SDS011;34086;51.076;13.722;2022-12-07T03:31:36;23.50;;;14.23;;
48263;SDS011;34086;51.076;13.722;2022-12-07T03:32:52;22.35;;;13.93;;
48263;SDS011;34086;51.076;13.722;2022-12-07T03:34:02;25.77;;;15.70;;
48263;SDS011;34086;51.076;13.722;2022-12-07T03:36:26;24.90;;;15.45;;
48263;SDS011;34086;51.076;13.722;2022-12-07T03:37:41;25.45;;;16.17;;
48263;SDS011;34086;51.076;13.722;2022-12-07T03:40:30;28.77;;;16.52;;
48263;SDS011;34086;51.076;13.722;2022-12-07T03:41:52;26.83;;;16.30;;
48263;SDS011;34086;51.076;13.722;2022-12-07T03:42:54;28.02;;;16.33;;
48263;SDS011;34086;51.076;13.722;2022-12-07T03:43:56;27.95;;;16.90;;
48263;SDS011;34086;51.076;13.722;2022-12-07T03:44:57;29.23;;;17.00;;
48263;SDS011;34086;51.076;13.722;2022-12-07T03:46:10;28.15;;;16.63;;
48263;SDS011;34086;51.076;13.722;2022-12-07T03:47:46;27.83;;;16.77;;
48263;SDS011;34086;51.076;13.722;2022-12-07T03:49:06;27.33;;;16.65;;
48263;SDS011;34086;51.076;13.722;2022-12-07T03:50:15;27.05;;;17.27;;
48263;SDS011;34086;51.076;13.722;2022-12-07T03:52:56;29.70;;;17.73;;
48263;SDS011;34086;51.076;13.722;2022-12-07T03:55:26;28.98;;;17.30;;
48263;SDS011;34086;51.076;13.722;2022-12-07T03:56:29;28.40;;;17.33;;
48263;SDS011;34086;51.076;13.722;2022-12-07T03:57:31;28.15;;;17.52;;
48263;SDS011;34086;51.076;13.722;2022-12-07T03:58:34;26.50;;;16.40;;
48263;SDS011;34086;51.076;13.722;2022-12-07T03:59:36;28.73;;;17.50;;
48263;SDS011;34086;51.076;13.722;2022-12-07T04:00:38;26.00;;;16.40;;
48263;SDS011;34086;51.076;13.722;2022-12-07T04:01:44;28.42;;;17.60;;
48263;SDS011;34086;51.076;13.722;2022-12-07T04:02:51;26.70;;;17.08;;
48263;SDS011;34086;51.076;13.722;2022-12-07T04:03:52;29.55;;;17.15;;
48263;SDS011;34086;51.076;13.722;2022-12-07T04:04:53;29.17;;;17.67;;
48263;SDS011;34086;51.076;13.722;2022-12-07T04:05:55;27.23;;;16.65;;
48263;SDS011;34086;51.076;13.722;2022-12-07T04:06:58;26.77;;;16.40;;
48263;SDS011;34086;51.076;13.722;2022-12-07T04:07:58;27.63;;;16.95;;
48263;SDS011;34086;51.076;13.722;2022-12-07T04:08:59;25.17;;;16.20;;
48263;SDS011;34086;51.076;13.722;2022-12-07T04:10:00;26.98;;;15.95;;
48263;SDS011;34086;51.076;13.722;2022-12-07T04:11:01;25.02;;;15.63;;
48263;SDS011;34086;51.076;13.722;2022-12-07T04:12:01;25.98;;;16.27;;
48263;SDS011;34086;51.076;13.722;2022-12-07T04:13:02;27.05;;;16.45;;
48263;SDS011;34086;51.076;13.722;2022-12-07T04:14:03;26.38;;;16.40;;
48263;SDS011;34086;51.076;13.722;2022-12-07T04:15:18;26.45;;;16.23;;
48263;SDS011;34086;51.076;13.722;2022-12-07T04:16:19;26.27;;;16.45;;
48263;SDS011;34086;51.076;13.722;2022-12-07T04:17:20;28.60;;;17.08;;
48263;SDS011;34086;51.076;13.722;2022-12-07T04:18:20;25.92;;;16.55;;
48263;SDS011;34086;51.076;13.722;2022-12-07T04:19:25;30.17;;;17.38;;
48263;SDS011;34086;51.076;13.722;2022-12-07T04:20:27;28.58;;;17.08;;
48263;SDS011;34086;51.076;13.722;2022-12-07T04:21:28;27.48;;;16.80;;
48263;SDS011;34086;51.076;13.722;2022-12-07T04:22:29;26.67;;;16.17;;
48263;SDS011;34086;51.076;13.722;2022-12-07T04:23:29;30.02;;;18.00;;
48263;SDS011;34086;51.076;13.722;2022-12-07T04:24:30;31.27;;;18.38;;
48263;SDS011;34086;51.076;13.722;2022-12-07T04:25:31;28.92;;;17.42;;
48263;SDS011;34086;51.076;13.722;2022-12-07T04:26:32;29.98;;;18.10;;
48263;SDS011;34086;51.076;13.722;2022-12-07T04:27:33;29.48;;;17.75;;
48263;SDS011;34086;51.076;13.722;2022-12-07T04:28:34;28.17;;;16.80;;
48263;SDS011;34086;51.076;13.722;2022-12-07T04:29:34;30.00;;;18.17;;
48263;SDS011;34086;51.076;13.722;2022-12-07T04:30:35;29.85;;;18.00;;
48263;SDS011;34086;51.076;13.722;2022-12-07T04:31:36;29.75;;;17.75;;
48263;SDS011;34086;51.076;13.722;2022-12-07T04:32:37;28.92;;;16.77;;
48263;SDS011;34086;51.076;13.722;2022-12-07T04:33:38;32.10;;;17.88;;
48263;SDS011;34086;51.076;13.722;2022-12-07T04:34:39;27.88;;;16.90;;
48263;SDS011;34086;51.076;13.722;2022-12-07T04:35:41;26.58;;;16.30;;
48263;SDS011;34086;51.076;13.722;2022-12-07T04:36:43;26.67;;;16.58;;
48263;SDS011;34086;51.076;13.722;2022-12-07T04:37:44;30.33;;;17.35;;
48263;SDS011;34086;51.076;13.722;2022-12-07T04:38:45;29.98;;;16.88;;
48263;SDS011;34086;51.076;13.722;2022-12-07T04:39:46;26.95;;;16.58;;
48263;SDS011;34086;51.076;13.722;2022-12-07T04:40:47;30.13;;;17.17;;
48263;SDS011;34086;51.076;13.722;2022-12-07T04:41:48;29.77;;;18.40;;
48263;SDS011;34086;51.076;13.722;2022-12-07T04:42:49;29.40;;;17.02;;
48263;SDS011;34086;51.076;13.722;2022-12-07T04:43:49;28.33;;;16.38;;
48263;SDS011;34086;51.076;13.722;2022-12-07T04:44:50;26.08;;;16.27;;
48263;SDS011;34086;51.076;13.722;2022-12-07T04:45:51;25.42;;;15.70;;
48263;SDS011;34086;51.076;13.722;2022-12-07T04:46:52;26.45;;;15.93;;
48263;SDS011;34086;51.076;13.722;2022-12-07T04:47:53;24.63;;;14.85;;
48263;SDS011;34086;51.076;13.722;2022-12-07T04:48:54;24.52;;;14.93;;
48263;SDS011;34086;51.076;13.722;2022-12-07T04:49:55;24.88;;;15.40;;
48263;SDS011;34086;51.076;13.722;2022-12-07T04:50:56;25.65;;;15.13;;
48263;SDS011;34086;51.076;13.722;2022-12-07T04:51:57;23.48;;;14.40;;
48263;SDS011;34086;51.076;13.722;2022-12-07T04:52:57;22.30;;;13.80;;
48263;SDS011;34086;51.076;13.722;2022-12-07T04:53:58;25.42;;;14.43;;
48263;SDS011;34086;51.076;13.722;2022-12-07T04:54:58;23.85;;;14.98;;
48263;SDS011;34086;51.076;13.722;2022-12-07T04:55:59;24.13;;;14.07;;
48263;SDS011;34086;51.076;13.722;2022-12-07T04:57:01;23.27;;;13.95;;
48263;SDS011;34086;51.076;13.722;2022-12-07T04:58:01;23.15;;;14.40;;
48263;SDS011;34086;51.076;13.722;2022-12-07T04:59:05;22.85;;;14.20;;
48263;SDS011;34086;51.076;13.722;2022-12-07T05:00:06;22.90;;;13.95;;
48263;SDS011;34086;51.076;13.722;2022-12-07T05:01:08;25.80;;;15.07;;
48263;SDS011;34086;51.076;13.722;2022-12-07T05:02:09;26.85;;;15.23;;
48263;SDS011;34086;51.076;13.722;2022-12-07T05:03:09;28.88;;;16.50;;
48263;SDS011;34086;51.076;13.722;2022-12-07T05:04:10;26.45;;;15.57;;
48263;SDS011;34086;51.076;13.722;2022-12-07T05:05:11;25.45;;;15.57;;
48263;SDS011;34086;51.076;13.722;2022-12-07T05:06:12;29.20;;;16.55;;
48263;SDS011;34086;51.076;13.722;2022-12-07T05:07:13;25.70;;;14.77;;
48263;SDS011;34086;51.076;13.722;2022-12-07T05:08:14;25.25;;;14.80;;
48263;SDS011;34086;51.076;13.722;2022-12-07T05:09:14;26.75;;;14.90;;
48263;SDS011;34086;51.076;13.722;2022-12-07T05:10:15;25.15;;;15.00;;
48263;SDS011;34086;51.076;13.722;2022-12-07T05:11:16;25.38;;;15.25;;
48263;SDS011;34086;51.076;13.722;2022-12-07T05:12:35;26.40;;;15.02;;
48263;SDS011;34086;51.076;13.722;2022-12-07T05:13:36;26.42;;;15.13;;
48263;SDS011;34086;51.076;13.722;2022-12-07T05:14:36;25.02;;;14.75;;
48263;SDS011;34086;51.076;13.722;2022-12-07T05:15:37;26.35;;;15.45;;
48263;SDS011;34086;51.076;13.722;2022-12-07T05:16:38;25.70;;;14.90;;
48263;SDS011;34086;51.076;13.722;2022-12-07T05:17:40;24.75;;;14.75;;
48263;SDS011;34086;51.076;13.722;2022-12-07T05:18:41;25.98;;;14.93;;
48263;SDS011;34086;51.076;13.722;2022-12-07T05:19:41;24.23;;;15.23;;
48263;SDS011;34086;51.076;13.722;2022-12-07T05:20:42;24.75;;;14.77;;
48263;SDS011;34086;51.076;13.722;2022-12-07T05:21:44;23.58;;;14.15;;
48263;SDS011;34086;51.076;13.722;2022-12-07T05:22:45;26.27;;;15.07;;
48263;SDS011;34086;51.076;13.722;2022-12-07T05:23:46;25.70;;;15.43;;
48263;SDS011;34086;51.076;13.722;2022-12-07T05:24:47;24.15;;;14.43;;
48263;SDS011;34086;51.076;13.722;2022-12-07T05:25:47;24.20;;;14.98;;
48263;SDS011;34086;51.076;13.722;2022-12-07T05:26:48;24.15;;;14.20;;
48263;SDS011;34086;51.076;13.722;2022-12-07T05:27:49;24.00;;;13.48;;
48263;SDS011;34086;51.076;13.722;2022-12-07T05:28:50;22.95;;;14.32;;
48263;SDS011;34086;51.076;13.722;2022-12-07T05:29:52;24.30;;;14.20;;
48263;SDS011;34086;51.076;13.722;2022-12-07T05:30:53;22.30;;;13.80;;
48263;SDS011;34086;51.076;13.722;2022-12-07T05:31:53;22.48;;;13.50;;
48263;SDS011;34086;51.076;13.722;2022-12-07T05:32:54;24.77;;;13.43;;
48263;SDS011;34086;51.076;13.722;2022-12-07T05:33:55;22.20;;;12.98;;
48263;SDS011;34086;51.076;13.722;2022-12-07T05:34:56;19.55;;;12.35;;
48263;SDS011;34086;51.076;13.722;2022-12-07T05:35:56;19.50;;;12.30;;
48263;SDS011;34086;51.076;13.722;2022-12-07T05:36:57;19.88;;;12.27;;
48263;SDS011;34086;51.076;13.722;2022-12-07T05:37:58;18.13;;;11.48;;
48263;SDS011;34086;51.076;13.722;2022-12-07T05:38:58;18.83;;;11.65;;
48263;SDS011;34086;51.076;13.722;2022-12-07T05:39:59;17.42;;;11.05;;
48263;SDS011;34086;51.076;13.722;2022-12-07T05:41:01;19.08;;;11.50;;
48263;SDS011;34086;51.076;13.722;2022-12-07T05:42:04;18.63;;;11.30;;
48263;SDS011;34086;51.076;13.722;2022-12-07T05:43:14;17.38;;;10.70;;
48263;SDS011;34086;51.076;13.722;2022-12-07T05:44:15;16.85;;;10.77;;
48263;SDS011;34086;51.076;13.722;2022-12-07T05:45:16;17.60;;;10.75;;
48263;SDS011;34086;51.076;13.722;2022-12-07T05:46:16;17.67;;;11.05;;
48263;SDS011;34086;51.076;13.722;2022-12-07T05:47:17;17.00;;;11.02;;
48263;SDS011;34086;51.076;13.722;2022-12-07T05:48:18;19.40;;;11.57;;
48263;SDS011;34086;51.076;13.722;2022-12-07T05:49:19;17.38;;;11.43;;
48263;SDS011;34086;51.076;13.722;2022-12-07T05:50:19;17.27;;;11.32;;
48263;SDS011;34086;51.076;13.722;2022-12-07T05:51:33;16.30;;;11.10;;
48263;SDS011;34086;51.076;13.722;2022-12-07T05:52:34;16.73;;;10.57;;
48263;SDS011;34086;51.076;13.722;2022-12-07T05:53:35;16.38;;;11.00;;
48263;SDS011;34086;51.076;13.722;2022-12-07T05:54:36;16.75;;;10.57;;
48263;SDS011;34086;51.076;13.722;2022-12-07T05:55:36;16.23;;;10.43;;
48263;SDS011;34086;51.076;13.722;2022-12-07T05:56:37;14.98;;;10.00;;
48263;SDS011;34086;51.076;13.722;2022-12-07T05:57:38;17.77;;;10.55;;
48263;SDS011;34086;51.076;13.722;2022-12-07T05:58:38;14.48;;;9.35;;
48263;SDS011;34086;51.076;13.722;2022-12-07T05:59:58;16.67;;;10.35;;
48263;SDS011;34086;51.076;13.722;2022-12-07T06:00:58;16.67;;;11.18;;
48263;SDS011;34086;51.076;13.722;2022-12-07T06:02:09;17.67;;;10.93;;
48263;SDS011;34086;51.076;13.722;2022-12-07T06:03:12;16.58;;;11.23;;
48263;SDS011;34086;51.076;13.722;2022-12-07T06:04:12;17.35;;;11.00;;
48263;SDS011;34086;51.076;13.722;2022-12-07T06:05:13;16.05;;;10.45;;
48263;SDS011;34086;51.076;13.722;2022-12-07T06:06:14;17.67;;;11.07;;
48263;SDS011;34086;51.076;13.722;2022-12-07T06:07:15;15.23;;;10.07;;
48263;SDS011;34086;51.076;13.722;2022-12-07T06:08:17;16.77;;;10.57;;
48263;SDS011;34086;51.076;13.722;2022-12-07T06:09:18;16.05;;;10.82;;
48263;SDS011;34086;51.076;13.722;2022-12-07T06:10:20;15.57;;;10.30;;
48263;SDS011;34086;51.076;13.722;2022-12-07T06:11:20;14.55;;;9.82;;
48263;SDS011;34086;51.076;13.722;2022-12-07T06:12:40;15.18;;;9.98;;
48263;SDS011;34086;51.076;13.722;2022-12-07T06:13:43;14.18;;;9.68;;
48263;SDS011;34086;51.076;13.722;2022-12-07T06:14:43;14.45;;;9.27;;
48263;SDS011;34086;51.076;13.722;2022-12-07T06:15:44;15.73;;;9.00;;
48263;SDS011;34086;51.076;13.722;2022-12-07T06:16:47;15.15;;;9.65;;
48263;SDS011;34086;51.076;13.722;2022-12-07T06:17:47;12.85;;;8.85;;
48263;SDS011;34086;51.076;13.722;2022-12-07T06:18:48;14.65;;;9.38;;
48263;SDS011;34086;51.076;13.722;2022-12-07T06:19:49;13.45;;;8.55;;
48263;SDS011;34086;51.076;13.722;2022-12-07T06:20:50;12.90;;;8.75;;
48263;SDS011;34086;51.076;13.722;2022-12-07T06:21:51;11.63;;;8.20;;
48263;SDS011;34086;51.076;13.722;2022-12-07T06:22:51;13.80;;;8.68;;
48263;SDS011;34086;51.076;13.722;2022-12-07T06:23:52;11.10;;;8.18;;
48263;SDS011;34086;51.076;13.722;2022-12-07T06:24:53;11.15;;;7.90;;
48263;SDS011;34086;51.076;13.722;2022-12-07T06:25:54;12.68;;;8.80;;
48263;SDS011;34086;51.076;13.722;2022-12-07T06:26:54;12.77;;;8.93;;
48263;SDS011;34086;51.076;13.722;2022-12-07T06:27:55;12.90;;;8.23;;
48263;SDS011;34086;51.076;13.722;2022-12-07T06:28:55;13.77;;;8.77;;
48263;SDS011;34086;51.076;13.722;2022-12-07T06:29:56;13.07;;;8.88;;
48263;SDS011;34086;51.076;13.722;2022-12-07T06:30:58;10.85;;;7.90;;
48263;SDS011;34086;51.076;13.722;2022-12-07T06:31:59;11.48;;;8.10;;